createdAt,value
2017-07-12T00:00:45.063Z,71.8
2017-07-12T00:01:45.435Z,71.51
2017-07-12T00:02:45.384Z,71.8
2017-07-12T00:03:45.375Z,71.61
2017-07-12T00:04:45.057Z,71.51
2017-07-12T00:05:45.378Z,71.51
2017-07-12T00:06:45.052Z,71.31
2017-07-12T00:07:45.369Z,71.31
2017-07-12T00:08:45.350Z,71.03
2017-07-12T00:09:45.359Z,71.41
2017-07-12T00:10:45.355Z,71.12
2017-07-12T00:11:45.360Z,71.31
2017-07-12T00:12:45.360Z,71.51
2017-07-12T00:13:45.348Z,71.51
2017-07-12T00:14:45.338Z,71.51
2017-07-12T00:15:45.023Z,71.31
2017-07-12T00:16:45.343Z,71.51
2017-07-12T00:17:45.325Z,71.51
2017-07-12T00:18:45.323Z,71.8
2017-07-12T00:19:45.334Z,71.8
2017-07-12T00:20:45.312Z,71.89
2017-07-12T00:21:45.328Z,71.89
2017-07-12T00:22:44.998Z,71.98
2017-07-12T00:23:44.998Z,71.7
2017-07-12T00:24:45.302Z,71.8
2017-07-12T00:25:45.308Z,71.89
2017-07-12T00:26:45.308Z,71.8
2017-07-12T00:27:45.309Z,71.51
2017-07-12T00:28:44.982Z,71.12
2017-07-12T00:29:45.289Z,70.84
2017-07-12T00:30:45.289Z,71.22
2017-07-12T00:31:45.296Z,71.31
2017-07-12T00:32:45.287Z,70.64
2017-07-12T00:33:45.285Z,70.64
2017-07-12T00:34:45.271Z,70.51
2017-07-12T00:35:45.279Z,70.42
2017-07-12T00:36:45.276Z,70.42
2017-07-12T00:37:45.275Z,70.13
2017-07-12T00:38:45.267Z,70.13
2017-07-12T00:39:44.951Z,70.13
2017-07-12T00:40:45.261Z,70.23
2017-07-12T00:41:45.259Z,70.51
2017-07-12T00:42:45.250Z,70.32
2017-07-12T00:43:45.251Z,70.23
2017-07-12T00:44:45.241Z,70.38
2017-07-12T00:45:45.252Z,70.48
2017-07-12T00:46:44.927Z,69.52
2017-07-12T00:47:45.249Z,70.57
2017-07-12T00:48:45.233Z,70.48
2017-07-12T00:49:45.227Z,70.38
2017-07-12T00:50:44.907Z,70.38
2017-07-12T00:51:45.233Z,70.19
2017-07-12T00:52:45.222Z,70.29
2017-07-12T00:53:44.901Z,70.19
2017-07-12T00:54:45.215Z,70.29
2017-07-12T00:55:44.900Z,70.19
2017-07-12T00:56:44.886Z,70.06
2017-07-12T00:57:45.195Z,70.09
2017-07-12T00:58:44.879Z,70.19
2017-07-12T00:59:45.199Z,70.06
2017-07-12T01:00:44.877Z,69.96
2017-07-12T01:01:44.875Z,70.25
2017-07-12T01:02:45.185Z,70.06
2017-07-12T01:03:45.171Z,70.25
2017-07-12T01:04:45.187Z,70.64
2017-07-12T01:05:45.176Z,70.25
2017-07-12T01:06:45.179Z,70.83
2017-07-12T01:07:45.158Z,70.83
2017-07-12T01:08:45.162Z,70.64
2017-07-12T01:09:45.160Z,70.64
2017-07-12T01:10:45.147Z,70.64
2017-07-12T01:11:45.152Z,70.73
2017-07-12T01:12:45.138Z,70.44
2017-07-12T01:13:45.149Z,70.44
2017-07-12T01:14:45.134Z,70.7
2017-07-12T01:15:45.145Z,70.5
2017-07-12T01:16:45.141Z,70.5
2017-07-12T01:17:45.178Z,70.6
2017-07-12T01:18:45.113Z,70.6
2017-07-12T01:19:45.126Z,70.6
2017-07-12T01:20:45.122Z,70.6
2017-07-12T01:21:45.116Z,70.6
2017-07-12T01:22:44.796Z,70.41
2017-07-12T01:23:45.353Z,70.41
2017-07-12T01:24:45.105Z,70.31
2017-07-12T01:25:45.098Z,70.98
2017-07-12T01:26:45.104Z,71.17
2017-07-12T01:27:44.774Z,70.89
2017-07-12T01:28:45.096Z,71.17
2017-07-12T01:29:45.083Z,70.79
2017-07-12T01:30:44.764Z,71.08
2017-07-12T01:31:45.064Z,71.17
2017-07-12T01:32:45.114Z,71.17
2017-07-12T01:33:45.067Z,70.89
2017-07-12T01:34:45.073Z,71.17
2017-07-12T01:35:45.050Z,70.7
2017-07-12T01:36:45.066Z,71.14
2017-07-12T01:37:44.733Z,70.85
2017-07-12T01:38:45.048Z,71.23
2017-07-12T01:39:45.036Z,71.14
2017-07-12T01:40:45.046Z,70.79
2017-07-12T01:41:44.719Z,70.76
2017-07-12T01:42:45.034Z,70.85
2017-07-12T01:43:44.707Z,70.7
2017-07-12T01:44:44.708Z,70.66
2017-07-12T01:45:45.017Z,70.85
2017-07-12T01:46:45.021Z,70.66
2017-07-12T01:47:45.003Z,70.76
2017-07-12T01:48:44.999Z,71.04
2017-07-12T01:49:45.010Z,70.66
2017-07-12T01:50:45.005Z,70.85
2017-07-12T01:51:44.999Z,70.66
2017-07-12T01:52:44.671Z,70.95
2017-07-12T01:53:44.669Z,70.66
2017-07-12T01:54:44.972Z,70.85
2017-07-12T01:55:44.662Z,70.66
2017-07-12T01:56:44.651Z,70.85
2017-07-12T01:57:44.971Z,70.95
2017-07-12T01:58:44.647Z,70.56
2017-07-12T01:59:44.957Z,71.42
2017-07-12T02:00:44.955Z,71.62
2017-07-12T02:01:44.960Z,71.81
2017-07-12T02:02:44.632Z,71.62
2017-07-12T02:03:44.942Z,71.42
2017-07-12T02:04:44.931Z,71.62
2017-07-12T02:05:44.934Z,71.52
2017-07-12T02:06:44.928Z,71.62
2017-07-12T02:07:44.922Z,71.71
2017-07-12T02:08:44.921Z,71.62
2017-07-12T02:09:44.915Z,71.62
2017-07-12T02:10:44.914Z,71.52
2017-07-12T02:11:44.912Z,71.52
2017-07-12T02:12:44.580Z,71.71
2017-07-12T02:13:44.899Z,71.62
2017-07-12T02:14:44.886Z,71.52
2017-07-12T02:15:44.896Z,71.52
2017-07-12T02:16:44.885Z,71.81
2017-07-12T02:17:44.886Z,71.71
2017-07-12T02:18:44.870Z,71.42
2017-07-12T02:19:44.880Z,71.62
2017-07-12T02:20:44.558Z,71.71
2017-07-12T02:21:44.865Z,71.42
2017-07-12T02:22:44.543Z,71.81
2017-07-12T02:23:44.853Z,71.77
2017-07-12T02:24:44.856Z,71.77
2017-07-12T02:25:44.841Z,71.62
2017-07-12T02:26:44.845Z,71.68
2017-07-12T02:27:44.839Z,71.2
2017-07-12T02:28:44.517Z,71.11
2017-07-12T02:29:44.515Z,71.2
2017-07-12T02:30:44.508Z,71.2
2017-07-12T02:31:44.822Z,71.2
2017-07-12T02:32:44.810Z,71.39
2017-07-12T02:33:44.804Z,71.3
2017-07-12T02:34:44.808Z,71.58
2017-07-12T02:35:44.821Z,71.58
2017-07-12T02:36:44.482Z,71.77
2017-07-12T02:37:44.794Z,71.58
2017-07-12T02:38:44.791Z,71.77
2017-07-12T02:39:44.784Z,71.77
2017-07-12T02:40:44.788Z,71.48
2017-07-12T02:41:44.771Z,71.68
2017-07-12T02:42:44.457Z,71.77
2017-07-12T02:43:44.754Z,71.77
2017-07-12T02:44:44.769Z,71.77
2017-07-12T02:45:44.751Z,71.77
2017-07-12T02:46:44.759Z,71.58
2017-07-12T02:47:45.943Z,71.77
2017-07-12T02:48:44.748Z,71.58
2017-07-12T02:49:44.749Z,71.77
2017-07-12T02:50:44.737Z,71.39
2017-07-12T02:51:44.729Z,71.39
2017-07-12T02:52:44.418Z,71.39
2017-07-12T02:53:44.724Z,71.58
2017-07-12T02:54:44.713Z,71.39
2017-07-12T02:55:44.709Z,71.77
2017-07-12T02:56:44.714Z,71.58
2017-07-12T02:57:44.703Z,71.48
2017-07-12T02:58:44.701Z,71.48
2017-07-12T02:59:44.684Z,71.39
2017-07-12T03:00:44.701Z,71.39
2017-07-12T03:01:44.679Z,71.77
2017-07-12T03:02:44.361Z,71.48
2017-07-12T03:03:44.676Z,71.68
2017-07-12T03:04:44.355Z,71.68
2017-07-12T03:05:44.354Z,71.68
2017-07-12T03:06:44.343Z,71.77
2017-07-12T03:07:44.658Z,71.58
2017-07-12T03:08:44.642Z,71.77
2017-07-12T03:09:44.657Z,71.97
2017-07-12T03:10:44.648Z,71.68
2017-07-12T03:11:44.644Z,71.77
2017-07-12T03:12:44.639Z,71.58
2017-07-12T03:13:44.633Z,71.68
2017-07-12T03:14:44.625Z,71.48
2017-07-12T03:15:44.309Z,71.2
2017-07-12T03:16:44.606Z,71.58
2017-07-12T03:17:44.299Z,71.3
2017-07-12T03:18:44.613Z,71.68
2017-07-12T03:19:44.593Z,71.58
2017-07-12T03:20:44.607Z,71.58
2017-07-12T03:21:44.594Z,71.62
2017-07-12T03:22:44.590Z,71.68
2017-07-12T03:23:44.582Z,71.48
2017-07-12T03:24:44.577Z,71.42
2017-07-12T03:25:44.579Z,71.62
2017-07-12T03:26:44.567Z,71.52
2017-07-12T03:27:44.570Z,71.42
2017-07-12T03:28:44.564Z,71.33
2017-07-12T03:29:44.561Z,71.33
2017-07-12T03:30:44.551Z,71.62
2017-07-12T03:31:44.549Z,71.52
2017-07-12T03:32:44.232Z,71.42
2017-07-12T03:33:44.547Z,71.62
2017-07-12T03:34:44.533Z,71.81
2017-07-12T03:35:44.534Z,72
2017-07-12T03:36:44.519Z,72.19
2017-07-12T03:37:44.515Z,72.19
2017-07-12T03:38:44.206Z,72.29
2017-07-12T03:39:44.531Z,72.42
2017-07-12T03:40:44.519Z,72.52
2017-07-12T03:41:44.495Z,72.52
2017-07-12T03:42:44.503Z,72.71
2017-07-12T03:43:44.510Z,72.94
2017-07-12T03:44:44.499Z,72.45
2017-07-12T03:45:44.179Z,72.36
2017-07-12T03:46:44.487Z,72.84
2017-07-12T03:47:44.494Z,72.68
2017-07-12T03:48:44.472Z,72.78
2017-07-12T03:49:44.478Z,72.88
2017-07-12T03:50:44.160Z,72.68
2017-07-12T03:51:44.471Z,72.63
2017-07-12T03:52:44.462Z,72.63
2017-07-12T03:53:44.139Z,72.72
2017-07-12T03:54:44.145Z,72.75
2017-07-12T03:55:44.142Z,72.56
2017-07-12T03:56:44.462Z,72.28
2017-07-12T03:57:44.459Z,72.31
2017-07-12T03:58:44.446Z,71.55
2017-07-12T03:59:44.449Z,71.96
2017-07-12T04:00:44.124Z,71.77
2017-07-12T04:01:44.127Z,71.77
2017-07-12T04:02:44.433Z,71.04
2017-07-12T04:03:44.445Z,70.94
2017-07-12T04:04:44.424Z,71.52
2017-07-12T04:05:44.445Z,71.36
2017-07-12T04:06:44.437Z,71.26
2017-07-12T04:07:44.437Z,71.65
2017-07-12T04:08:44.434Z,71.69
2017-07-12T04:09:44.436Z,71.88
2017-07-12T04:10:44.429Z,72.01
2017-07-12T04:11:44.422Z,72.01
2017-07-12T04:12:44.417Z,71.66
2017-07-12T04:13:44.432Z,71.08
2017-07-12T04:14:44.428Z,71.79
2017-07-12T04:15:44.435Z,71.79
2017-07-12T04:16:44.428Z,71.5
2017-07-12T04:17:44.431Z,71.34
2017-07-12T04:18:44.423Z,71.38
2017-07-12T04:19:44.431Z,71.48
2017-07-12T04:20:44.415Z,70.9
2017-07-12T04:21:44.429Z,71.12
2017-07-12T04:22:44.110Z,71.16
2017-07-12T04:23:44.441Z,71.16
2017-07-12T04:24:44.428Z,71.36
2017-07-12T04:25:44.114Z,71.39
2017-07-12T04:26:44.432Z,71.3
2017-07-12T04:27:44.438Z,71.14
2017-07-12T04:28:44.448Z,70.5
2017-07-12T04:29:44.122Z,70.2
2017-07-12T04:30:44.451Z,70.4
2017-07-12T04:31:44.447Z,70.72
2017-07-12T04:32:44.135Z,70.37
2017-07-12T04:33:44.455Z,70.08
2017-07-12T04:34:44.461Z,69.92
2017-07-12T04:35:44.147Z,68.95
2017-07-12T04:36:44.823Z,68.79
2017-07-12T04:37:44.466Z,68.63
2017-07-12T04:38:44.476Z,68.63
2017-07-12T04:39:44.477Z,69.15
2017-07-12T04:40:44.470Z,68.76
2017-07-12T04:41:44.479Z,68.6
2017-07-12T04:42:44.493Z,68.21
2017-07-12T04:43:44.502Z,67.66
2017-07-12T04:44:44.505Z,67.66
2017-07-12T04:45:44.190Z,67.8
2017-07-12T04:46:44.513Z,66.92
2017-07-12T04:47:44.511Z,67.34
2017-07-12T04:48:44.526Z,66.86
2017-07-12T04:49:44.211Z,66.89
2017-07-12T04:50:44.550Z,67.28
2017-07-12T04:51:44.535Z,67.11
2017-07-12T04:52:44.552Z,66.53
2017-07-12T04:53:44.544Z,65.88
2017-07-12T04:54:44.564Z,65.5
2017-07-12T04:55:44.560Z,65.33
2017-07-12T04:56:44.587Z,65.63
2017-07-12T04:57:44.584Z,65.82
2017-07-12T04:58:44.586Z,65.75
2017-07-12T04:59:44.591Z,66.76
2017-07-12T05:00:44.613Z,65.72
2017-07-12T05:01:44.616Z,65.92
2017-07-12T05:02:44.633Z,66.53
2017-07-12T05:03:44.621Z,66.76
2017-07-12T05:04:44.652Z,65.82
2017-07-12T05:05:44.646Z,65.85
2017-07-12T05:06:44.656Z,64.68
2017-07-12T05:07:44.663Z,64.71
2017-07-12T05:08:44.358Z,63.67
2017-07-12T05:09:44.688Z,63.86
2017-07-12T05:10:44.703Z,63.31
2017-07-12T05:11:44.697Z,63.11
2017-07-12T05:12:44.722Z,63.31
2017-07-12T05:13:44.728Z,62.62
2017-07-12T05:14:44.736Z,62.13
2017-07-12T05:15:44.742Z,62.23
2017-07-12T05:16:44.429Z,61.71
2017-07-12T05:17:44.769Z,62.46
2017-07-12T05:18:44.458Z,62.26
2017-07-12T05:19:44.791Z,62.53
2017-07-12T05:20:44.776Z,62.82
2017-07-12T05:21:44.492Z,62.53
2017-07-12T05:22:44.490Z,62.79
2017-07-12T05:23:44.817Z,62.95
2017-07-12T05:24:44.818Z,62.37
2017-07-12T05:25:44.837Z,62.73
2017-07-12T05:26:44.522Z,62.73
2017-07-12T05:27:44.847Z,62.24
2017-07-12T05:28:44.540Z,63.38
2017-07-12T05:29:44.914Z,62.7
2017-07-12T05:30:44.554Z,62.38
2017-07-12T05:31:44.881Z,62.57
2017-07-12T05:32:44.574Z,62.76
2017-07-12T05:33:44.904Z,62.83
2017-07-12T05:34:44.585Z,62.93
2017-07-12T05:35:44.595Z,63.42
2017-07-12T05:36:44.953Z,62.99
2017-07-12T05:37:44.937Z,63.29
2017-07-12T05:38:44.925Z,63.29
2017-07-12T05:39:44.938Z,62.99
2017-07-12T05:40:44.947Z,63.29
2017-07-12T05:41:44.953Z,63.48
2017-07-12T05:42:44.955Z,63.48
2017-07-12T05:43:44.956Z,63.39
2017-07-12T05:44:44.986Z,63.68
2017-07-12T05:45:44.666Z,63.48
2017-07-12T05:46:44.992Z,63.29
2017-07-12T05:47:44.984Z,63.55
2017-07-12T05:48:44.993Z,63.26
2017-07-12T05:49:45.013Z,64.26
2017-07-12T05:50:45.011Z,63.48
2017-07-12T05:51:44.705Z,63.39
2017-07-12T05:52:45.030Z,63.58
2017-07-12T05:53:44.714Z,63.71
2017-07-12T05:54:45.047Z,63.54
2017-07-12T05:55:45.066Z,63.64
2017-07-12T05:56:45.060Z,63.35
2017-07-12T05:57:45.060Z,63.77
2017-07-12T05:58:45.364Z,63.77
2017-07-12T05:59:45.133Z,63.57
2017-07-12T06:00:45.096Z,63.28
2017-07-12T06:01:45.101Z,63.18
2017-07-12T06:02:45.104Z,62.6
2017-07-12T06:03:45.103Z,62.7
2017-07-12T06:04:45.117Z,63.28
2017-07-12T06:05:45.128Z,63.41
2017-07-12T06:06:45.138Z,63.6
2017-07-12T06:07:45.150Z,64.22
2017-07-12T06:08:45.140Z,65.56
2017-07-12T06:09:45.179Z,66.86
2017-07-12T06:10:45.171Z,66.14
2017-07-12T06:11:45.188Z,63.14
2017-07-12T06:12:45.181Z,63.37
2017-07-12T06:13:45.207Z,62.25
2017-07-12T06:14:44.895Z,62.67
2017-07-12T06:15:45.222Z,61.6
2017-07-12T06:16:45.229Z,61.6
2017-07-12T06:17:45.246Z,61.1
2017-07-12T06:18:44.941Z,60.74
2017-07-12T06:19:45.267Z,60.94
2017-07-12T06:20:45.276Z,60.81
2017-07-12T06:21:44.983Z,61.2
2017-07-12T06:22:44.979Z,60.91
2017-07-12T06:23:45.315Z,60.91
2017-07-12T06:24:44.995Z,60.88
2017-07-12T06:25:45.333Z,61.27
2017-07-12T06:26:45.334Z,61.05
2017-07-12T06:27:45.041Z,61.44
2017-07-12T06:28:45.362Z,61.41
2017-07-12T06:29:45.382Z,60.99
2017-07-12T06:30:45.390Z,60.99
2017-07-12T06:31:45.391Z,61.83
2017-07-12T06:32:45.400Z,60.63
2017-07-12T06:33:45.104Z,61.12
2017-07-12T06:34:45.423Z,61.97
2017-07-12T06:35:45.440Z,61.68
2017-07-12T06:36:45.500Z,61.77
2017-07-12T06:37:45.447Z,61.87
2017-07-12T06:38:45.456Z,61.35
2017-07-12T06:39:45.463Z,60.96
2017-07-12T06:40:45.480Z,61.25
2017-07-12T06:41:45.477Z,61.52
2017-07-12T06:42:45.178Z,61.62
2017-07-12T06:43:45.505Z,61.52
2017-07-12T06:44:45.498Z,61.13
2017-07-12T06:45:45.518Z,61.43
2017-07-12T06:46:45.206Z,61.23
2017-07-12T06:47:45.531Z,61.62
2017-07-12T06:48:45.540Z,62.5
2017-07-12T06:49:45.559Z,61.91
2017-07-12T06:50:45.558Z,62.08
2017-07-12T06:51:45.569Z,61.69
2017-07-12T06:52:45.576Z,61.88
2017-07-12T06:53:45.574Z,61.85
2017-07-12T06:54:45.592Z,61.95
2017-07-12T06:55:45.658Z,62.92
2017-07-12T06:56:45.606Z,61.95
2017-07-12T06:57:45.290Z,62.21
2017-07-12T06:58:45.622Z,61.63
2017-07-12T06:59:45.622Z,62.7
2017-07-12T07:00:45.322Z,61.79
2017-07-12T07:01:45.640Z,61.82
2017-07-12T07:02:45.653Z,61.24
2017-07-12T07:03:45.650Z,61.66
2017-07-12T07:04:45.666Z,62.37
2017-07-12T07:05:45.360Z,62.6
2017-07-12T07:06:45.689Z,61.25
2017-07-12T07:07:45.691Z,61.58
2017-07-12T07:08:45.710Z,61.32
2017-07-12T07:09:45.709Z,61.32
2017-07-12T07:10:45.715Z,61.64
2017-07-12T07:11:45.730Z,61.54
2017-07-12T07:12:45.737Z,60.69
2017-07-12T07:13:45.742Z,64.12
2017-07-12T07:14:45.829Z,63.34
2017-07-12T07:15:45.756Z,60.79
2017-07-12T07:16:45.778Z,61.96
2017-07-12T07:17:45.772Z,60.89
2017-07-12T07:18:45.478Z,61.67
2017-07-12T07:19:45.807Z,63.73
2017-07-12T07:20:45.822Z,64.61
2017-07-12T07:21:45.816Z,66.37
2017-07-12T07:22:45.520Z,61.96
2017-07-12T07:23:45.843Z,61.99
2017-07-12T07:24:45.849Z,61.93
2017-07-12T07:25:45.854Z,62.15
2017-07-12T07:26:45.881Z,71.93
2017-07-12T07:27:45.873Z,61.95
2017-07-12T07:28:45.915Z,62.99
2017-07-12T07:29:45.909Z,68.04
2017-07-12T07:30:45.929Z,69.25
2017-07-12T07:31:45.936Z,66.53
2017-07-12T07:32:45.950Z,67.74
2017-07-12T07:33:45.959Z,69.88
2017-07-12T07:34:45.978Z,66.92
2017-07-12T08:46:46.961Z,46.33
2017-07-12T08:47:46.966Z,52.6
2017-07-12T08:48:46.983Z,41.86
2017-07-12T08:49:46.992Z,47.93
2017-07-12T08:50:47.009Z,51.52
2017-07-12T08:51:47.015Z,53.77
2017-07-12T08:52:46.710Z,54.73
2017-07-12T08:53:47.028Z,59.24
2017-07-12T08:54:47.043Z,61
2017-07-12T08:55:47.054Z,61.1
2017-07-12T08:56:47.071Z,61.69
2017-07-12T08:57:46.763Z,58.55
2017-07-12T08:58:47.083Z,61.1
2017-07-12T08:59:47.094Z,61.99
2017-07-12T09:00:46.787Z,59.53
2017-07-12T09:01:47.115Z,61.99
2017-07-12T09:02:47.116Z,62.77
2017-07-12T09:03:46.820Z,63.33
2017-07-12T09:04:47.136Z,64.73
2017-07-12T09:05:47.162Z,65.22
2017-07-12T09:06:47.160Z,64.14
2017-07-12T09:07:47.176Z,63.95
2017-07-12T09:08:47.170Z,61.18
2017-07-12T09:09:47.192Z,57.93
2017-07-12T09:10:47.197Z,55.1
2017-07-12T09:11:46.894Z,60.16
2017-07-12T09:12:47.233Z,62.12
2017-07-12T09:13:47.233Z,62.29
2017-07-12T09:14:47.230Z,60.72
2017-07-12T09:15:47.248Z,62.29
2017-07-12T09:16:47.248Z,64.05
2017-07-12T09:17:47.269Z,52.89
2017-07-12T09:18:47.269Z,58.05
2017-07-12T09:19:47.290Z,59.91
2017-07-12T09:20:46.980Z,63.7
2017-07-12T09:21:47.313Z,58.61
2017-07-12T09:22:46.992Z,62.62
2017-07-12T09:23:47.321Z,61.64
2017-07-12T09:33:47.094Z,63.11
2017-07-12T09:34:47.425Z,59.71
2017-07-12T09:35:47.431Z,64.8
2017-07-12T09:36:47.436Z,62.35
2017-07-12T09:37:47.452Z,62.06
2017-07-12T09:38:47.455Z,64.12
2017-07-12T09:39:47.148Z,60.69
2017-07-12T09:40:47.150Z,63.4
2017-07-12T09:41:47.483Z,64.87
2017-07-12T09:42:47.490Z,64.09
2017-07-12T09:43:47.496Z,63.6
2017-07-12T09:44:47.507Z,57.82
2017-07-12T09:45:47.511Z,63.79
2017-07-12T09:46:47.530Z,59.36
2017-07-12T09:47:47.526Z,54.96
2017-07-12T09:48:47.230Z,54.96
2017-07-12T09:49:47.539Z,62.39
2017-07-12T09:50:47.573Z,62.82
2017-07-12T09:51:47.564Z,59.69
2017-07-12T09:52:47.579Z,62.42
2017-07-12T09:53:47.259Z,63.43
2017-07-12T09:54:47.592Z,64.9
2017-07-12T09:55:47.599Z,54.33
2017-07-12T09:56:47.610Z,57.26
2017-07-12T09:57:47.617Z,57.66
2017-07-12T09:58:47.630Z,56.97
2017-07-12T09:59:47.645Z,57.46
2017-07-12T10:00:47.652Z,61.08
2017-07-12T10:01:47.657Z,60.79
2017-07-12T10:02:47.668Z,57.95
2017-07-12T10:03:47.672Z,61.67
2017-07-12T10:04:47.369Z,61.57
2017-07-12T10:05:47.680Z,60.99
2017-07-12T10:06:47.728Z,60.79
2017-07-12T10:07:47.701Z,62.35
2017-07-12T10:08:47.724Z,59.91
2017-07-12T10:09:47.722Z,61.87
2017-07-12T10:10:47.741Z,63.43
2017-07-12T10:11:47.747Z,57.66
2017-07-12T10:12:47.437Z,62.75
2017-07-12T10:13:47.754Z,62.23
2017-07-12T10:14:47.771Z,64.18
2017-07-12T10:15:47.813Z,61.15
2017-07-12T10:16:47.795Z,62.52
2017-07-12T10:17:47.799Z,64.28
2017-07-12T10:18:47.801Z,65.03
2017-07-12T10:19:47.810Z,65.69
2017-07-12T10:20:47.808Z,67.32
2017-07-12T10:21:47.833Z,63.7
2017-07-12T10:22:47.517Z,64.94
2017-07-12T10:23:47.845Z,63.93
2017-07-12T10:24:47.851Z,64.42
2017-07-12T10:25:47.863Z,67.51
2017-07-12T10:26:47.866Z,67.71
2017-07-12T10:27:47.877Z,67.51
2017-07-12T10:28:47.889Z,68.68
2017-07-12T10:29:47.885Z,67.9
2017-07-12T10:30:47.579Z,68
2017-07-12T10:31:47.909Z,68.59
2017-07-12T10:32:47.920Z,68.74
2017-07-12T10:33:47.927Z,68.16
2017-07-12T10:34:47.924Z,68.55
2017-07-12T10:35:47.938Z,68.84
2017-07-12T10:36:47.932Z,68.55
2017-07-12T10:37:47.953Z,67.35
2017-07-12T10:38:47.950Z,68.71
2017-07-12T10:39:47.973Z,68.23
2017-07-12T10:40:47.962Z,67.12
2017-07-12T10:41:47.663Z,67.12
2017-07-12T10:42:47.982Z,66.05
2017-07-12T10:43:47.983Z,68.64
2017-07-12T10:44:47.985Z,67.77
2017-07-12T10:45:48.010Z,69
2017-07-12T10:46:48.017Z,68.8
2017-07-12T10:47:48.009Z,68.22
2017-07-12T10:48:48.014Z,67.02
2017-07-12T10:49:48.941Z,68.09
2017-07-12T10:50:48.042Z,68.96
2017-07-12T10:51:48.038Z,67.9
2017-07-12T10:52:48.035Z,68.77
2017-07-12T10:53:48.057Z,67.8
2017-07-12T10:54:48.052Z,67.5
2017-07-12T10:55:48.069Z,66.96
2017-07-12T10:56:48.061Z,67.25
2017-07-12T10:57:48.090Z,67.28
2017-07-12T10:58:48.086Z,66.99
2017-07-12T10:59:48.090Z,67.12
2017-07-12T11:00:48.092Z,67.22
2017-07-12T11:01:47.788Z,68.52
2017-07-12T11:02:48.104Z,69.2
2017-07-12T11:03:48.114Z,68.62
2017-07-12T11:04:48.115Z,68.62
2017-07-12T11:05:48.127Z,69
2017-07-12T11:06:47.819Z,67.83
2017-07-12T11:07:48.136Z,68.71
2017-07-12T11:08:48.142Z,68.8
2017-07-12T11:09:48.139Z,69.78
2017-07-12T11:10:47.842Z,69
2017-07-12T11:11:48.155Z,67.8
2017-07-12T11:12:48.177Z,68.68
2017-07-12T11:13:48.174Z,67.5
2017-07-12T11:14:48.190Z,67.99
2017-07-12T11:15:48.190Z,67.5
2017-07-12T11:16:48.199Z,68.97
2017-07-12T11:17:48.192Z,68.16
2017-07-12T11:18:48.215Z,67.57
2017-07-12T11:19:48.216Z,68.06
2017-07-12T11:20:48.218Z,67.96
2017-07-12T11:21:48.222Z,67.77
2017-07-12T11:22:48.232Z,68.93
2017-07-12T11:23:47.924Z,68.45
2017-07-12T11:24:48.243Z,69.32
2017-07-12T11:25:48.237Z,69.71
2017-07-12T11:26:48.254Z,68.74
2017-07-12T11:27:48.261Z,68.35
2017-07-12T11:28:48.271Z,68.64
2017-07-12T11:29:48.288Z,68.64
2017-07-12T11:30:48.289Z,68.55
2017-07-12T11:31:48.283Z,68.26
2017-07-12T11:32:48.301Z,68.51
2017-07-12T11:33:47.973Z,68.51
2017-07-12T11:34:48.300Z,68.41
2017-07-12T11:35:47.993Z,68.32
2017-07-12T11:36:48.312Z,69.48
2017-07-12T11:37:48.003Z,68.38
2017-07-12T11:38:48.324Z,68.29
2017-07-12T11:39:48.335Z,68.77
2017-07-12T11:40:48.017Z,67.31
2017-07-12T11:41:48.344Z,68.93
2017-07-12T11:42:48.347Z,68.54
2017-07-12T11:43:48.347Z,68.12
2017-07-12T11:44:48.043Z,67.93
2017-07-12T11:45:48.347Z,67.93
2017-07-12T11:46:48.377Z,67.7
2017-07-12T11:47:48.371Z,67.21
2017-07-12T11:48:48.381Z,66.63
2017-07-12T11:49:48.372Z,66.99
2017-07-12T11:50:48.382Z,66.3
2017-07-12T11:51:48.390Z,66.4
2017-07-12T11:52:48.082Z,66.6
2017-07-12T11:53:48.402Z,66.66
2017-07-12T11:54:48.079Z,65.69
2017-07-12T11:55:48.090Z,66.47
2017-07-12T11:56:48.418Z,65.2
2017-07-12T11:57:48.405Z,65.59
2017-07-12T11:58:48.425Z,65.2
2017-07-12T11:59:48.420Z,65.01
2017-07-12T12:00:48.423Z,65.2
2017-07-12T12:01:48.414Z,65.5
2017-07-12T12:02:48.437Z,65.79
2017-07-12T12:03:48.441Z,65.01
2017-07-12T12:04:48.449Z,65.37
2017-07-12T12:05:48.119Z,64.33
2017-07-12T12:06:48.445Z,64.43
2017-07-12T12:07:48.138Z,64.33
2017-07-12T12:08:48.452Z,64.62
2017-07-12T12:09:48.449Z,64.23
2017-07-12T12:10:48.464Z,64.82
2017-07-12T12:11:48.460Z,63.95
2017-07-12T12:12:48.468Z,64.43
2017-07-12T12:13:48.466Z,63.56
2017-07-12T12:14:48.160Z,63.53
2017-07-12T12:15:48.161Z,62.46
2017-07-12T12:16:48.483Z,62.85
2017-07-12T12:17:48.479Z,64.11
2017-07-12T12:18:48.493Z,63.62
2017-07-12T12:19:48.497Z,64.4
2017-07-12T12:20:48.493Z,64.78
2017-07-12T12:21:48.489Z,63.98
2017-07-12T12:22:48.183Z,63.49
2017-07-12T12:23:48.509Z,63.69
2017-07-12T12:24:48.511Z,63.3
2017-07-12T12:25:48.512Z,63.4
2017-07-12T12:26:48.194Z,63.59
2017-07-12T12:27:48.517Z,63.01
2017-07-12T12:28:48.198Z,65.2
2017-07-12T12:29:48.213Z,63.65
2017-07-12T12:30:48.528Z,62.98
2017-07-12T12:31:48.540Z,64.24
2017-07-12T12:32:48.213Z,63.07
2017-07-12T12:33:48.539Z,63.07
2017-07-12T12:34:48.539Z,63.14
2017-07-12T12:35:48.550Z,63.14
2017-07-12T12:36:48.557Z,63.43
2017-07-12T12:37:48.545Z,63.24
2017-07-12T12:38:48.550Z,63.14
2017-07-12T12:39:48.559Z,63.34
2017-07-12T12:40:48.250Z,63.92
2017-07-12T12:41:48.249Z,63.34
2017-07-12T12:42:48.242Z,63.14
2017-07-12T12:43:48.577Z,62.75
2017-07-12T12:44:48.564Z,63.43
2017-07-12T12:45:48.576Z,63.04
2017-07-12T12:46:48.579Z,62.56
2017-07-12T12:47:48.583Z,62.27
2017-07-12T12:48:48.582Z,62.85
2017-07-12T12:49:48.594Z,62.95
2017-07-12T12:50:48.580Z,61.85
2017-07-12T12:51:48.591Z,63.01
2017-07-12T12:52:48.592Z,62.14
2017-07-12T12:53:48.598Z,62.92
2017-07-12T12:54:48.604Z,62.92
2017-07-12T12:55:48.606Z,63.01
2017-07-12T12:56:48.594Z,62.88
2017-07-12T12:57:48.285Z,62.92
2017-07-12T12:58:48.614Z,62.92
2017-07-12T12:59:48.610Z,62.92
2017-07-12T13:00:48.612Z,63.01
2017-07-12T13:01:48.301Z,62.69
2017-07-12T13:02:48.618Z,62.98
2017-07-12T13:03:48.623Z,63.08
2017-07-12T13:04:48.298Z,62.5
2017-07-12T13:05:48.309Z,63.08
2017-07-12T13:06:48.627Z,63.37
2017-07-12T13:07:48.312Z,63.08
2017-07-12T13:08:48.306Z,62.88
2017-07-12T13:09:48.636Z,63.18
2017-07-12T13:10:48.642Z,63.05
2017-07-12T13:11:48.321Z,62.88
2017-07-12T13:12:48.313Z,63.05
2017-07-12T13:13:48.630Z,62.76
2017-07-12T13:14:48.333Z,63.05
2017-07-12T13:15:48.635Z,63.05
2017-07-12T13:16:48.655Z,63.34
2017-07-12T13:17:48.654Z,63.14
2017-07-12T13:18:48.650Z,63.24
2017-07-12T13:19:48.331Z,63.63
2017-07-12T13:20:48.657Z,63.14
2017-07-12T13:21:48.336Z,62.47
2017-07-12T13:22:48.346Z,62.95
2017-07-12T13:23:48.345Z,63.05
2017-07-12T13:24:48.662Z,63.05
2017-07-12T13:25:48.654Z,63.14
2017-07-12T13:26:48.349Z,63.34
2017-07-12T13:27:48.663Z,63.24
2017-07-12T13:28:48.667Z,63.24
2017-07-12T13:29:48.657Z,63.34
2017-07-12T13:30:48.357Z,62.66
2017-07-12T13:31:48.665Z,62.95
2017-07-12T13:32:48.675Z,63.24
2017-07-12T13:33:48.669Z,62.66
2017-07-12T13:34:48.679Z,62.66
2017-07-12T13:35:48.671Z,62.79
2017-07-12T13:36:48.682Z,62.79
2017-07-12T13:37:48.680Z,63.27
2017-07-12T13:38:48.687Z,63.08
2017-07-12T13:39:48.691Z,63.56
2017-07-12T13:40:48.680Z,63.14
2017-07-12T13:41:48.901Z,63.92
2017-07-12T13:42:48.699Z,63.34
2017-07-12T13:43:48.687Z,63.43
2017-07-12T13:44:48.688Z,63.82
2017-07-12T13:45:48.694Z,63.02
2017-07-12T13:46:48.708Z,63.02
2017-07-12T13:47:48.696Z,65.34
2017-07-12T13:48:48.709Z,64.66
2017-07-12T13:49:48.709Z,63.69
2017-07-12T13:50:48.715Z,63.69
2017-07-12T13:51:48.702Z,64.27
2017-07-12T13:52:48.702Z,63.79
2017-07-12T13:53:48.716Z,64.14
2017-07-12T13:54:48.702Z,65.01
2017-07-12T13:55:48.479Z,63.85
2017-07-12T13:56:48.705Z,64.24
2017-07-12T13:57:48.726Z,64.05
2017-07-12T13:58:48.717Z,63.89
2017-07-12T13:59:48.711Z,63.98
2017-07-12T14:00:48.709Z,64.27
2017-07-12T14:01:48.716Z,64.08
2017-07-12T14:02:48.734Z,64.95
2017-07-12T14:03:48.731Z,63.79
2017-07-12T14:04:48.414Z,63.89
2017-07-12T14:05:48.716Z,63.98
2017-07-12T14:06:48.732Z,64.08
2017-07-12T14:07:48.721Z,64.85
2017-07-12T14:08:48.738Z,64.63
2017-07-12T14:09:48.741Z,64.14
2017-07-12T14:10:48.742Z,64.24
2017-07-12T14:11:48.731Z,64.43
2017-07-12T14:12:48.741Z,64.05
2017-07-12T14:13:48.421Z,64.63
2017-07-12T14:14:48.735Z,64.98
2017-07-12T14:15:48.746Z,64.01